sensor_id;sensor_type;location;lat;lon;timestamp;pressure;altitude;pressure_sealevel;temperature;humidity
28354;BME280;15603;50.878;8.036;2023-04-15T00:01:09;144222.41;;;4.05;100.00
28354;BME280;15603;50.878;8.036;2023-04-15T00:03:37;144210.28;;;4.00;100.00
28354;BME280;15603;50.878;8.036;2023-04-15T00:06:05;144210.28;;;4.00;100.00
28354;BME280;15603;50.878;8.036;2023-04-15T00:08:32;144186.09;;;3.90;100.00
28354;BME280;15603;50.878;8.036;2023-04-15T00:11:00;144169.16;;;3.83;100.00
28354;BME280;15603;50.878;8.036;2023-04-15T00:13:29;144188.53;;;3.91;100.00
28354;BME280;15603;50.878;8.036;2023-04-15T00:15:56;144200.63;;;3.96;100.00
28354;BME280;15603;50.878;8.036;2023-04-15T00:18:23;144155.84;;;3.77;100.00
28354;BME280;15603;50.878;8.036;2023-04-15T00:20:50;144137.72;;;3.69;100.00
28354;BME280;15603;50.878;8.036;2023-04-15T00:23:18;144155.84;;;3.77;100.00
28354;BME280;15603;50.878;8.036;2023-04-15T00:25:46;144131.69;;;3.67;100.00
28354;BME280;15603;50.878;8.036;2023-04-15T00:28:13;144113.53;;;3.59;100.00
28354;BME280;15603;50.878;8.036;2023-04-15T00:30:41;144114.75;;;3.60;100.00
28354;BME280;15603;50.878;8.036;2023-04-15T00:33:09;144067.59;;;3.40;100.00
28354;BME280;15603;50.878;8.036;2023-04-15T00:35:36;144065.16;;;3.39;100.00
28354;BME280;15603;50.878;8.036;2023-04-15T00:38:05;144129.28;;;3.66;100.00
28354;BME280;15603;50.878;8.036;2023-04-15T00:40:33;144120.81;;;3.62;100.00
28354;BME280;15603;50.878;8.036;2023-04-15T00:43:01;144054.31;;;3.34;100.00
28354;BME280;15603;50.878;8.036;2023-04-15T00:45:29;144083.28;;;3.46;100.00
28354;BME280;15603;50.878;8.036;2023-04-15T00:47:56;144113.53;;;3.59;100.00
28354;BME280;15603;50.878;8.036;2023-04-15T00:50:23;144074.88;;;3.43;100.00
28354;BME280;15603;50.878;8.036;2023-04-15T00:52:50;144073.63;;;3.42;100.00
28354;BME280;15603;50.878;8.036;2023-04-15T00:55:17;144106.31;;;3.56;100.00
28354;BME280;15603;50.878;8.036;2023-04-15T00:57:45;144026.50;;;3.22;100.00
28354;BME280;15603;50.878;8.036;2023-04-15T01:00:12;144073.63;;;3.42;100.00
28354;BME280;15603;50.878;8.036;2023-04-15T01:02:39;144074.88;;;3.43;100.00
28354;BME280;15603;50.878;8.036;2023-04-15T01:05:07;144065.16;;;3.39;100.00
28354;BME280;15603;50.878;8.036;2023-04-15T01:07:35;144054.31;;;3.34;100.00
28354;BME280;15603;50.878;8.036;2023-04-15T01:10:03;144067.59;;;3.40;100.00
28354;BME280;15603;50.878;8.036;2023-04-15T01:12:31;144055.50;;;3.34;100.00
28354;BME280;15603;50.878;8.036;2023-04-15T01:14:59;144037.38;;;3.27;100.00
28354;BME280;15603;50.878;8.036;2023-04-15T01:17:26;143997.50;;;3.10;100.00
28354;BME280;15603;50.878;8.036;2023-04-15T01:19:55;144031.34;;;3.24;100.00
28354;BME280;15603;50.878;8.036;2023-04-15T01:22:24;144021.66;;;3.20;100.00
28354;BME280;15603;50.878;8.036;2023-04-15T01:27:38;143968.47;;;2.98;100.00
28354;BME280;15603;50.878;8.036;2023-04-15T01:30:06;144004.72;;;3.13;100.00
28354;BME280;15603;50.878;8.036;2023-04-15T01:32:33;144007.16;;;3.14;100.00
28354;BME280;15603;50.878;8.036;2023-04-15T01:35:01;143927.38;;;2.80;100.00
28354;BME280;15603;50.878;8.036;2023-04-15T01:37:28;143997.50;;;3.10;100.00
28354;BME280;15603;50.878;8.036;2023-04-15T01:39:56;143999.91;;;3.11;100.00
28354;BME280;15603;50.878;8.036;2023-04-15T01:42:24;143989.03;;;3.06;100.00
28354;BME280;15603;50.878;8.036;2023-04-15T01:44:51;143963.63;;;2.95;100.00
28354;BME280;15603;50.878;8.036;2023-04-15T01:47:19;143982.97;;;3.04;100.00
28354;BME280;15603;50.878;8.036;2023-04-15T01:49:46;143912.88;;;2.74;100.00
28354;BME280;15603;50.878;8.036;2023-04-15T01:52:14;143975.75;;;3.01;100.00
28354;BME280;15603;50.878;8.036;2023-04-15T01:54:41;143958.81;;;2.93;100.00
28354;BME280;15603;50.878;8.036;2023-04-15T01:57:14;143956.38;;;2.92;100.00
28354;BME280;15603;50.878;8.036;2023-04-15T01:59:41;143958.81;;;2.93;100.00
28354;BME280;15603;50.878;8.036;2023-04-15T02:02:08;143870.59;;;2.56;100.00
28354;BME280;15603;50.878;8.036;2023-04-15T02:04:36;143925.00;;;2.79;100.00
28354;BME280;15603;50.878;8.036;2023-04-15T02:07:03;143888.75;;;2.64;100.00
28354;BME280;15603;50.878;8.036;2023-04-15T02:09:30;143916.53;;;2.75;100.00
28354;BME280;15603;50.878;8.036;2023-04-15T02:11:57;143910.44;;;2.73;100.00
28354;BME280;15603;50.878;8.036;2023-04-15T02:14:25;143818.63;;;2.34;100.00
28354;BME280;15603;50.878;8.036;2023-04-15T02:16:53;143920.13;;;2.77;100.00
28354;BME280;15603;50.878;8.036;2023-04-15T02:19:20;143887.50;;;2.63;100.00
28354;BME280;15603;50.878;8.036;2023-04-15T02:21:47;143922.56;;;2.78;100.00
28354;BME280;15603;50.878;8.036;2023-04-15T02:24:16;143908.06;;;2.72;100.00
28354;BME280;15603;50.878;8.036;2023-04-15T02:26:43;143908.06;;;2.72;100.00
28354;BME280;15603;50.878;8.036;2023-04-15T02:29:11;143830.72;;;2.39;100.00
28354;BME280;15603;50.878;8.036;2023-04-15T02:31:39;143847.63;;;2.46;100.00
28354;BME280;15603;50.878;8.036;2023-04-15T02:34:08;143874.19;;;2.58;100.00
28354;BME280;15603;50.878;8.036;2023-04-15T02:36:35;143837.94;;;2.42;100.00
28354;BME280;15603;50.878;8.036;2023-04-15T02:39:04;143819.81;;;2.34;100.00
28354;BME280;15603;50.878;8.036;2023-04-15T02:41:31;143817.44;;;2.33;100.00
28354;BME280;15603;50.878;8.036;2023-04-15T02:43:58;143767.91;;;2.12;100.00
28354;BME280;15603;50.878;8.036;2023-04-15T02:46:25;143847.63;;;2.46;100.00
28354;BME280;15603;50.878;8.036;2023-04-15T02:48:53;143840.38;;;2.43;100.00
28354;BME280;15603;50.878;8.036;2023-04-15T02:51:23;143845.22;;;2.45;100.00
28354;BME280;15603;50.878;8.036;2023-04-15T02:53:50;143805.34;;;2.28;100.00
28354;BME280;15603;50.878;8.036;2023-04-15T02:56:17;143804.16;;;2.28;100.00
28354;BME280;15603;50.878;8.036;2023-04-15T02:58:45;143792.06;;;2.23;100.00
28354;BME280;15603;50.878;8.036;2023-04-15T03:01:12;143799.31;;;2.26;100.00
28354;BME280;15603;50.878;8.036;2023-04-15T03:03:41;143794.50;;;2.24;100.00
28354;BME280;15603;50.878;8.036;2023-04-15T03:06:08;143777.56;;;2.16;100.00
28354;BME280;15603;50.878;8.036;2023-04-15T03:08:35;143725.66;;;1.94;100.00
28354;BME280;15603;50.878;8.036;2023-04-15T03:11:03;143780.00;;;2.18;100.00
28354;BME280;15603;50.878;8.036;2023-04-15T03:13:32;143763.09;;;2.10;100.00
28354;BME280;15603;50.878;8.036;2023-04-15T03:16:05;143775.13;;;2.15;100.00
28354;BME280;15603;50.878;8.036;2023-04-15T03:18:32;143766.72;;;2.12;100.00
28354;BME280;15603;50.878;8.036;2023-04-15T03:21:02;143749.78;;;2.05;100.00
28354;BME280;15603;50.878;8.036;2023-04-15T03:23:33;143758.25;;;2.08;100.00
28354;BME280;15603;50.878;8.036;2023-04-15T03:26:02;143753.44;;;2.06;100.00
28354;BME280;15603;50.878;8.036;2023-04-15T03:28:31;143767.91;;;2.12;100.00
28354;BME280;15603;50.878;8.036;2023-04-15T03:30:59;143767.91;;;2.12;100.00
28354;BME280;15603;50.878;8.036;2023-04-15T03:33:26;143775.13;;;2.15;100.00
28354;BME280;15603;50.878;8.036;2023-04-15T03:35:53;143765.47;;;2.11;100.00
28354;BME280;15603;50.878;8.036;2023-04-15T03:38:20;143755.81;;;2.07;100.00
28354;BME280;15603;50.878;8.036;2023-04-15T03:40:47;143720.78;;;1.92;100.00
28354;BME280;15603;50.878;8.036;2023-04-15T03:43:14;143767.91;;;2.12;100.00
28354;BME280;15603;50.878;8.036;2023-04-15T03:45:42;143775.13;;;2.15;100.00
28354;BME280;15603;50.878;8.036;2023-04-15T03:48:09;143766.72;;;2.12;100.00
28354;BME280;15603;50.878;8.036;2023-04-15T03:50:43;143755.81;;;2.07;100.00
28354;BME280;15603;50.878;8.036;2023-04-15T03:53:10;143746.16;;;2.03;100.00
28354;BME280;15603;50.878;8.036;2023-04-15T03:55:37;143780.00;;;2.18;100.00
28354;BME280;15603;50.878;8.036;2023-04-15T03:58:04;143782.41;;;2.19;100.00
28354;BME280;15603;50.878;8.036;2023-04-15T04:00:31;143753.44;;;2.06;100.00
28354;BME280;15603;50.878;8.036;2023-04-15T04:02:58;143684.56;;;1.77;100.00
28354;BME280;15603;50.878;8.036;2023-04-15T04:05:26;143738.91;;;2.00;100.00
28354;BME280;15603;50.878;8.036;2023-04-15T04:07:53;143764.28;;;2.11;100.00
28354;BME280;15603;50.878;8.036;2023-04-15T04:10:20;143761.88;;;2.10;100.00
28354;BME280;15603;50.878;8.036;2023-04-15T04:12:47;143697.84;;;1.83;100.00
28354;BME280;15603;50.878;8.036;2023-04-15T04:15:14;143726.84;;;1.95;100.00
28354;BME280;15603;50.878;8.036;2023-04-15T04:17:41;143731.69;;;1.97;100.00
28354;BME280;15603;50.878;8.036;2023-04-15T04:20:09;143717.19;;;1.91;100.00
28354;BME280;15603;50.878;8.036;2023-04-15T04:22:39;143758.25;;;2.08;100.00
28354;BME280;15603;50.878;8.036;2023-04-15T04:25:07;143771.53;;;2.14;100.00
28354;BME280;15603;50.878;8.036;2023-04-15T04:27:36;143781.19;;;2.18;100.00
28354;BME280;15603;50.878;8.036;2023-04-15T04:30:04;143741.34;;;2.01;100.00
28354;BME280;15603;50.878;8.036;2023-04-15T04:32:32;143767.91;;;2.12;100.00
28354;BME280;15603;50.878;8.036;2023-04-15T04:34:59;143748.59;;;2.04;100.00
28354;BME280;15603;50.878;8.036;2023-04-15T04:37:26;143708.72;;;1.87;100.00
28354;BME280;15603;50.878;8.036;2023-04-15T04:39:53;143676.13;;;1.73;100.00
28354;BME280;15603;50.878;8.036;2023-04-15T04:42:21;143729.25;;;1.96;100.00
28354;BME280;15603;50.878;8.036;2023-04-15T04:44:48;143757.00;;;2.08;100.00
28354;BME280;15603;50.878;8.036;2023-04-15T04:47:15;143722.03;;;1.93;100.00
28354;BME280;15603;50.878;8.036;2023-04-15T04:49:42;143680.97;;;1.75;100.00
28354;BME280;15603;50.878;8.036;2023-04-15T04:52:09;143687.00;;;1.78;100.00
28354;BME280;15603;50.878;8.036;2023-04-15T04:54:36;143750.97;;;2.05;100.00
28354;BME280;15603;50.878;8.036;2023-04-15T04:57:03;143750.97;;;2.05;100.00
28354;BME280;15603;50.878;8.036;2023-04-15T04:59:30;143731.69;;;1.97;100.00
28354;BME280;15603;50.878;8.036;2023-04-15T05:01:57;143775.13;;;2.15;100.00
28354;BME280;15603;50.878;8.036;2023-04-15T05:04:24;143786.03;;;2.20;100.00
28354;BME280;15603;50.878;8.036;2023-04-15T05:06:52;143787.22;;;2.21;100.00
28354;BME280;15603;50.878;8.036;2023-04-15T05:09:19;143767.91;;;2.12;100.00
28354;BME280;15603;50.878;8.036;2023-04-15T05:11:46;143782.41;;;2.19;100.00
28354;BME280;15603;50.878;8.036;2023-04-15T05:14:13;143821.06;;;2.35;100.00
28354;BME280;15603;50.878;8.036;2023-04-15T05:16:40;143735.31;;;1.99;100.00
28354;BME280;15603;50.878;8.036;2023-04-15T05:19:07;143844.03;;;2.45;100.00
28354;BME280;15603;50.878;8.036;2023-04-15T05:21:34;143851.25;;;2.48;100.00
28354;BME280;15603;50.878;8.036;2023-04-15T05:24:06;143889.94;;;2.64;100.00
28354;BME280;15603;50.878;8.036;2023-04-15T05:26:33;143812.63;;;2.31;100.00
28354;BME280;15603;50.878;8.036;2023-04-15T05:29:00;143860.91;;;2.52;100.00
28354;BME280;15603;50.878;8.036;2023-04-15T05:31:28;143868.16;;;2.55;100.00
28354;BME280;15603;50.878;8.036;2023-04-15T05:33:55;143893.56;;;2.66;100.00
28354;BME280;15603;50.878;8.036;2023-04-15T05:36:22;143921.34;;;2.78;100.00
28354;BME280;15603;50.878;8.036;2023-04-15T05:38:49;143927.38;;;2.80;100.00
28354;BME280;15603;50.878;8.036;2023-04-15T05:41:16;143917.72;;;2.76;100.00
28354;BME280;15603;50.878;8.036;2023-04-15T05:43:45;143900.78;;;2.69;100.00
28354;BME280;15603;50.878;8.036;2023-04-15T05:46:12;143945.50;;;2.88;100.00
28354;BME280;15603;50.878;8.036;2023-04-15T05:48:40;143904.41;;;2.70;100.00
28354;BME280;15603;50.878;8.036;2023-04-15T05:51:07;143947.94;;;2.89;100.00
28354;BME280;15603;50.878;8.036;2023-04-15T05:53:34;143964.84;;;2.96;100.00
28354;BME280;15603;50.878;8.036;2023-04-15T05:56:01;143981.78;;;3.03;100.00
28354;BME280;15603;50.878;8.036;2023-04-15T05:58:28;143987.78;;;3.06;100.00
28354;BME280;15603;50.878;8.036;2023-04-15T06:00:55;143967.28;;;2.97;100.00
28354;BME280;15603;50.878;8.036;2023-04-15T06:03:23;143972.09;;;2.99;100.00
28354;BME280;15603;50.878;8.036;2023-04-15T06:05:50;143996.25;;;3.09;100.00
28354;BME280;15603;50.878;8.036;2023-04-15T06:08:17;143995.06;;;3.09;100.00
28354;BME280;15603;50.878;8.036;2023-04-15T06:10:45;143995.06;;;3.09;100.00
28354;BME280;15603;50.878;8.036;2023-04-15T06:13:12;144019.22;;;3.19;100.00
28354;BME280;15603;50.878;8.036;2023-04-15T06:15:39;144034.97;;;3.26;100.00
28354;BME280;15603;50.878;8.036;2023-04-15T06:18:06;144065.16;;;3.39;100.00
28354;BME280;15603;50.878;8.036;2023-04-15T06:20:33;144113.53;;;3.59;100.00
28354;BME280;15603;50.878;8.036;2023-04-15T06:23:00;144142.59;;;3.71;100.00
28354;BME280;15603;50.878;8.036;2023-04-15T06:25:27;144129.28;;;3.66;100.00
28354;BME280;15603;50.878;8.036;2023-04-15T06:27:54;144149.81;;;3.74;100.00
28354;BME280;15603;50.878;8.036;2023-04-15T06:30:21;144183.72;;;3.89;100.00
28354;BME280;15603;50.878;8.036;2023-04-15T06:32:50;144190.94;;;3.92;100.00
28354;BME280;15603;50.878;8.036;2023-04-15T06:35:17;144171.59;;;3.84;100.00
28354;BME280;15603;50.878;8.036;2023-04-15T06:37:44;144262.31;;;4.22;100.00
28354;BME280;15603;50.878;8.036;2023-04-15T06:40:12;144311.94;;;4.43;100.00
28354;BME280;15603;50.878;8.036;2023-04-15T06:42:39;144302.25;;;4.39;100.00
28354;BME280;15603;50.878;8.036;2023-04-15T06:45:07;144324.06;;;4.48;100.00
28354;BME280;15603;50.878;8.036;2023-04-15T06:47:35;144309.50;;;4.42;100.00
28354;BME280;15603;50.878;8.036;2023-04-15T06:50:02;144374.88;;;4.70;100.00
28354;BME280;15603;50.878;8.036;2023-04-15T06:52:30;144400.25;;;4.81;100.00
28354;BME280;15603;50.878;8.036;2023-04-15T06:54:57;144411.19;;;4.85;100.00
28354;BME280;15603;50.878;8.036;2023-04-15T06:57:25;144443.84;;;4.99;100.00
28354;BME280;15603;50.878;8.036;2023-04-15T06:59:52;144403.91;;;4.82;100.00
28354;BME280;15603;50.878;8.036;2023-04-15T07:02:20;144524.97;;;5.34;100.00
28354;BME280;15603;50.878;8.036;2023-04-15T07:04:47;144573.38;;;5.54;100.00
28354;BME280;15603;50.878;8.036;2023-04-15T07:07:14;144570.97;;;5.53;100.00
28354;BME280;15603;50.878;8.036;2023-04-15T07:09:43;144618.19;;;5.73;100.00
28354;BME280;15603;50.878;8.036;2023-04-15T07:12:10;144692.16;;;6.04;100.00
28354;BME280;15603;50.878;8.036;2023-04-15T07:14:37;144723.63;;;6.18;100.00
28354;BME280;15603;50.878;8.036;2023-04-15T07:17:04;144717.59;;;6.15;100.00
28354;BME280;15603;50.878;8.036;2023-04-15T07:19:32;144803.63;;;6.52;100.00
28354;BME280;15603;50.878;8.036;2023-04-15T07:21:59;144825.44;;;6.61;100.00
28354;BME280;15603;50.878;8.036;2023-04-15T07:24:26;144850.88;;;6.72;99.58
28354;BME280;15603;50.878;8.036;2023-04-15T07:26:54;144900.56;;;6.93;99.34
28354;BME280;15603;50.878;8.036;2023-04-15T07:29:26;144920.00;;;7.01;98.94
28354;BME280;15603;50.878;8.036;2023-04-15T07:31:53;144983.06;;;7.27;98.76
28354;BME280;15603;50.878;8.036;2023-04-15T07:34:22;145013.34;;;7.40;96.40
28354;BME280;15603;50.878;8.036;2023-04-15T07:36:50;145103.09;;;7.78;95.21
28354;BME280;15603;50.878;8.036;2023-04-15T07:39:17;145143.16;;;7.95;94.13
28354;BME280;15603;50.878;8.036;2023-04-15T07:41:45;145202.59;;;8.20;92.17
28354;BME280;15603;50.878;8.036;2023-04-15T07:44:12;145253.59;;;8.42;90.50
28354;BME280;15603;50.878;8.036;2023-04-15T07:46:39;145285.16;;;8.55;90.40
28354;BME280;15603;50.878;8.036;2023-04-15T07:49:07;145393.22;;;9.01;89.47
28354;BME280;15603;50.878;8.036;2023-04-15T07:51:34;145453.91;;;9.27;87.09
28354;BME280;15603;50.878;8.036;2023-04-15T07:54:01;145383.50;;;8.97;86.87
28354;BME280;15603;50.878;8.036;2023-04-15T07:56:29;145497.63;;;9.45;85.42
28354;BME280;15603;50.878;8.036;2023-04-15T07:58:56;145504.91;;;9.48;85.14
28354;BME280;15603;50.878;8.036;2023-04-15T08:01:23;145504.91;;;9.48;84.22
28354;BME280;15603;50.878;8.036;2023-04-15T08:03:50;145469.66;;;9.33;82.68
28354;BME280;15603;50.878;8.036;2023-04-15T08:06:17;145529.22;;;9.58;83.67
28354;BME280;15603;50.878;8.036;2023-04-15T08:08:44;145500.03;;;9.46;84.24
28354;BME280;15603;50.878;8.036;2023-04-15T08:11:12;145517.06;;;9.53;82.62
28354;BME280;15603;50.878;8.036;2023-04-15T08:13:39;145490.34;;;9.42;82.61
28354;BME280;15603;50.878;8.036;2023-04-15T08:18:39;145577.78;;;9.79;80.35
28354;BME280;15603;50.878;8.036;2023-04-15T08:21:07;145554.69;;;9.69;82.14
28354;BME280;15603;50.878;8.036;2023-04-15T08:23:35;145525.56;;;9.57;81.64
28354;BME280;15603;50.878;8.036;2023-04-15T08:26:02;145591.13;;;9.85;81.05
28354;BME280;15603;50.878;8.036;2023-04-15T08:28:29;145577.78;;;9.79;81.23
28354;BME280;15603;50.878;8.036;2023-04-15T08:30:57;145560.75;;;9.72;82.05
28354;BME280;15603;50.878;8.036;2023-04-15T08:33:24;145549.84;;;9.67;81.63
28354;BME280;15603;50.878;8.036;2023-04-15T08:35:51;145485.47;;;9.40;82.76
28354;BME280;15603;50.878;8.036;2023-04-15T08:38:18;145585.09;;;9.82;81.97
28354;BME280;15603;50.878;8.036;2023-04-15T08:40:45;145519.47;;;9.54;82.40
28354;BME280;15603;50.878;8.036;2023-04-15T08:43:22;145557.16;;;9.70;83.51
28354;BME280;15603;50.878;8.036;2023-04-15T08:45:54;145531.63;;;9.59;83.10
28354;BME280;15603;50.878;8.036;2023-04-15T08:48:22;145548.66;;;9.67;82.16
28354;BME280;15603;50.878;8.036;2023-04-15T08:50:50;145563.22;;;9.73;82.12
28354;BME280;15603;50.878;8.036;2023-04-15T08:53:18;145444.19;;;9.22;82.94
28354;BME280;15603;50.878;8.036;2023-04-15T08:55:46;145507.34;;;9.49;82.72
28354;BME280;15603;50.878;8.036;2023-04-15T08:58:18;145541.34;;;9.63;83.10
28354;BME280;15603;50.878;8.036;2023-04-15T09:00:45;145537.69;;;9.62;82.40
28354;BME280;15603;50.878;8.036;2023-04-15T09:03:13;145543.78;;;9.65;82.18
28354;BME280;15603;50.878;8.036;2023-04-15T09:05:40;145535.28;;;9.61;82.48
28354;BME280;15603;50.878;8.036;2023-04-15T09:08:08;145538.94;;;9.62;82.54
28354;BME280;15603;50.878;8.036;2023-04-15T09:10:35;145563.22;;;9.73;83.29
28354;BME280;15603;50.878;8.036;2023-04-15T09:13:02;145519.47;;;9.54;83.95
28354;BME280;15603;50.878;8.036;2023-04-15T09:15:31;145587.50;;;9.83;82.25
28354;BME280;15603;50.878;8.036;2023-04-15T09:17:59;145642.16;;;10.06;80.74
28354;BME280;15603;50.878;8.036;2023-04-15T09:20:26;145648.28;;;10.09;81.78
28354;BME280;15603;50.878;8.036;2023-04-15T09:22:53;145749.16;;;10.51;79.91
28354;BME280;15603;50.878;8.036;2023-04-15T09:27:48;145616.69;;;9.95;82.26
28354;BME280;15603;50.878;8.036;2023-04-15T09:30:16;145645.81;;;10.08;81.67
28354;BME280;15603;50.878;8.036;2023-04-15T09:32:52;145599.66;;;9.88;81.33
28354;BME280;15603;50.878;8.036;2023-04-15T09:35:20;145582.63;;;9.81;81.90
28354;BME280;15603;50.878;8.036;2023-04-15T09:37:48;145597.19;;;9.87;82.93
28354;BME280;15603;50.878;8.036;2023-04-15T09:40:32;145640.97;;;10.06;80.71
28354;BME280;15603;50.878;8.036;2023-04-15T09:43:01;145673.75;;;10.19;82.03
28354;BME280;15603;50.878;8.036;2023-04-15T09:45:28;145784.38;;;10.66;79.32
28354;BME280;15603;50.878;8.036;2023-04-15T09:47:57;145812.38;;;10.78;79.62
28354;BME280;15603;50.878;8.036;2023-04-15T09:50:28;145812.38;;;10.78;78.72
28354;BME280;15603;50.878;8.036;2023-04-15T09:52:55;145808.72;;;10.76;78.46
28354;BME280;15603;50.878;8.036;2023-04-15T09:55:23;145824.50;;;10.83;79.56
28354;BME280;15603;50.878;8.036;2023-04-15T09:57:50;145912.03;;;11.20;78.33
28354;BME280;15603;50.878;8.036;2023-04-15T10:00:17;145878.00;;;11.06;76.35
28354;BME280;15603;50.878;8.036;2023-04-15T10:02:46;145896.25;;;11.13;75.96
28354;BME280;15603;50.878;8.036;2023-04-15T10:05:14;145886.53;;;11.09;77.73
28354;BME280;15603;50.878;8.036;2023-04-15T10:07:45;145867.09;;;11.01;76.87
28354;BME280;15603;50.878;8.036;2023-04-15T10:10:13;145893.78;;;11.12;77.87
28354;BME280;15603;50.878;8.036;2023-04-15T10:12:41;145774.66;;;10.62;80.57
28354;BME280;15603;50.878;8.036;2023-04-15T10:15:14;145755.22;;;10.54;81.75
28354;BME280;15603;50.878;8.036;2023-04-15T10:17:43;145837.88;;;10.89;79.84
28354;BME280;15603;50.878;8.036;2023-04-15T10:20:11;145738.19;;;10.47;81.02
28354;BME280;15603;50.878;8.036;2023-04-15T10:22:41;145764.94;;;10.58;80.71
28354;BME280;15603;50.878;8.036;2023-04-15T10:25:08;145667.69;;;10.17;82.61
28354;BME280;15603;50.878;8.036;2023-04-15T10:27:38;145713.91;;;10.36;82.57
28354;BME280;15603;50.878;8.036;2023-04-15T10:30:07;145655.53;;;10.12;83.69
28354;BME280;15603;50.878;8.036;2023-04-15T10:32:35;145666.50;;;10.16;84.76
28354;BME280;15603;50.878;8.036;2023-04-15T10:35:04;145628.78;;;10.00;83.79
28354;BME280;15603;50.878;8.036;2023-04-15T10:37:36;145638.56;;;10.05;84.73
28354;BME280;15603;50.878;8.036;2023-04-15T10:42:49;145597.19;;;9.87;86.92
28354;BME280;15603;50.878;8.036;2023-04-15T10:45:17;145691.97;;;10.27;85.69
28354;BME280;15603;50.878;8.036;2023-04-15T10:47:45;145543.78;;;9.65;86.04
28354;BME280;15603;50.878;8.036;2023-04-15T10:50:12;145588.75;;;9.83;86.93
28354;BME280;15603;50.878;8.036;2023-04-15T10:52:40;145599.66;;;9.88;86.17
28354;BME280;15603;50.878;8.036;2023-04-15T10:55:13;145581.44;;;9.80;87.76
28354;BME280;15603;50.878;8.036;2023-04-15T10:57:42;145502.50;;;9.47;88.60
28354;BME280;15603;50.878;8.036;2023-04-15T11:00:17;145543.78;;;9.65;89.82
28354;BME280;15603;50.878;8.036;2023-04-15T11:03:07;145611.81;;;9.93;89.29
28354;BME280;15603;50.878;8.036;2023-04-15T11:08:09;145621.53;;;9.97;88.12
28354;BME280;15603;50.878;8.036;2023-04-15T11:13:15;145619.06;;;9.96;87.99
28354;BME280;15603;50.878;8.036;2023-04-15T11:15:44;145653.13;;;10.11;89.39
28354;BME280;15603;50.878;8.036;2023-04-15T11:18:16;145643.41;;;10.07;89.59
28354;BME280;15603;50.878;8.036;2023-04-15T11:20:48;145644.63;;;10.07;92.05
28354;BME280;15603;50.878;8.036;2023-04-15T11:23:41;145486.69;;;9.40;93.00
28354;BME280;15603;50.878;8.036;2023-04-15T11:26:15;145546.19;;;9.66;95.82
28354;BME280;15603;50.878;8.036;2023-04-15T11:28:43;145547.44;;;9.66;97.05
28354;BME280;15603;50.878;8.036;2023-04-15T11:31:15;145475.78;;;9.36;99.08
28354;BME280;15603;50.878;8.036;2023-04-15T11:33:59;145531.63;;;9.59;99.65
28354;BME280;15603;50.878;8.036;2023-04-15T11:36:28;145489.13;;;9.41;100.00
28354;BME280;15603;50.878;8.036;2023-04-15T11:38:57;145504.91;;;9.48;99.98
28354;BME280;15603;50.878;8.036;2023-04-15T11:41:25;145560.75;;;9.72;98.63
28354;BME280;15603;50.878;8.036;2023-04-15T11:43:52;145547.44;;;9.66;98.83
28354;BME280;15603;50.878;8.036;2023-04-15T11:46:20;145440.53;;;9.21;100.00
28354;BME280;15603;50.878;8.036;2023-04-15T11:48:48;145475.78;;;9.36;100.00
28354;BME280;15603;50.878;8.036;2023-04-15T11:51:15;145383.50;;;8.97;100.00
28354;BME280;15603;50.878;8.036;2023-04-15T11:53:44;145411.41;;;9.09;100.00
28354;BME280;15603;50.878;8.036;2023-04-15T11:56:22;145377.41;;;8.94;100.00
28354;BME280;15603;50.878;8.036;2023-04-15T11:58:54;145364.03;;;8.89;100.00
28354;BME280;15603;50.878;8.036;2023-04-15T12:01:39;145273.00;;;8.50;100.00
28354;BME280;15603;50.878;8.036;2023-04-15T12:04:16;145293.66;;;8.59;100.00
28354;BME280;15603;50.878;8.036;2023-04-15T12:06:48;145317.91;;;8.69;100.00
28354;BME280;15603;50.878;8.036;2023-04-15T12:09:15;145317.91;;;8.69;100.00
28354;BME280;15603;50.878;8.036;2023-04-15T12:11:44;145298.50;;;8.61;100.00
28354;BME280;15603;50.878;8.036;2023-04-15T12:16:48;145327.63;;;8.73;100.00
28354;BME280;15603;50.878;8.036;2023-04-15T12:21:49;145327.63;;;8.73;100.00
28354;BME280;15603;50.878;8.036;2023-04-15T12:24:20;145393.22;;;9.01;100.00
28354;BME280;15603;50.878;8.036;2023-04-15T12:26:50;145376.19;;;8.94;100.00
28354;BME280;15603;50.878;8.036;2023-04-15T12:29:19;145400.47;;;9.04;100.00
28354;BME280;15603;50.878;8.036;2023-04-15T12:31:52;145427.19;;;9.15;100.00
28354;BME280;15603;50.878;8.036;2023-04-15T12:34:27;145450.25;;;9.25;100.00
28354;BME280;15603;50.878;8.036;2023-04-15T12:36:55;145462.41;;;9.30;100.00
28354;BME280;15603;50.878;8.036;2023-04-15T12:39:24;145422.31;;;9.13;100.00
28354;BME280;15603;50.878;8.036;2023-04-15T12:41:54;145452.69;;;9.26;100.00
28354;BME280;15603;50.878;8.036;2023-04-15T12:44:22;145410.16;;;9.08;100.00
28354;BME280;15603;50.878;8.036;2023-04-15T12:46:50;145458.75;;;9.29;100.00
28354;BME280;15603;50.878;8.036;2023-04-15T12:49:20;145432.03;;;9.17;100.00
28354;BME280;15603;50.878;8.036;2023-04-15T12:51:48;145453.91;;;9.27;100.00
28354;BME280;15603;50.878;8.036;2023-04-15T12:54:17;145450.25;;;9.25;100.00
28354;BME280;15603;50.878;8.036;2023-04-15T12:56:45;145400.47;;;9.04;100.00
28354;BME280;15603;50.878;8.036;2023-04-15T12:59:14;145330.06;;;8.74;100.00
28354;BME280;15603;50.878;8.036;2023-04-15T13:01:42;145384.69;;;8.97;100.00
28354;BME280;15603;50.878;8.036;2023-04-15T13:04:09;145376.19;;;8.94;100.00
28354;BME280;15603;50.878;8.036;2023-04-15T13:06:36;145383.50;;;8.97;100.00
28354;BME280;15603;50.878;8.036;2023-04-15T13:09:04;145406.56;;;9.07;100.00
28354;BME280;15603;50.878;8.036;2023-04-15T13:11:32;145413.81;;;9.10;100.00
28354;BME280;15603;50.878;8.036;2023-04-15T13:14:00;145398.06;;;9.03;100.00
28354;BME280;15603;50.878;8.036;2023-04-15T13:16:28;145466.06;;;9.32;100.00
28354;BME280;15603;50.878;8.036;2023-04-15T13:18:56;145490.34;;;9.42;100.00